createdAt,value
2019-03-20T00:02:23.295Z,78.16
2019-03-20T00:04:51.689Z,78.16
2019-03-20T00:07:39.217Z,78.11
2019-03-20T00:10:47.521Z,78.59
2019-03-20T00:13:15.931Z,78.31
2019-03-20T00:16:04.948Z,78.38
2019-03-20T00:18:52.607Z,78.12
2019-03-20T00:21:21.006Z,77.48
2019-03-20T00:23:49.414Z,77.03
2019-03-20T00:26:37.055Z,76.58
2019-03-20T00:31:58.529Z,75.85
2019-03-20T00:34:46.179Z,75.95
2019-03-20T00:37:33.698Z,76.45
2019-03-20T00:40:21.209Z,77.29
2019-03-20T00:43:08.865Z,78.17
2019-03-20T00:45:37.245Z,78.32
2019-03-20T00:48:45.561Z,78.46
2019-03-20T00:51:33.296Z,78.41
2019-03-20T00:54:20.822Z,78.47
2019-03-20T00:56:49.221Z,78.28
2019-03-20T00:59:36.872Z,77.90
2019-03-20T01:02:24.515Z,77.60
2019-03-20T01:04:52.924Z,77.21
2019-03-20T01:07:21.318Z,76.89
2019-03-20T01:10:08.834Z,76.56
2019-03-20T01:15:24.675Z,76.10
2019-03-20T01:17:53.078Z,76.13
2019-03-20T01:23:28.257Z,75.77
2019-03-20T01:25:56.643Z,75.69
2019-03-20T01:28:25.056Z,75.76
2019-03-20T01:33:40.909Z,76.25
2019-03-20T01:36:09.307Z,76.68
2019-03-20T01:38:37.719Z,77.10
2019-03-20T01:41:25.368Z,76.92
2019-03-20T01:43:53.775Z,76.68
2019-03-20T01:46:22.165Z,76.30
2019-03-20T01:49:09.689Z,75.82
2019-03-20T01:51:38.079Z,75.42
2019-03-20T01:54:25.599Z,75.21
2019-03-20T01:56:53.997Z,74.95
2019-03-20T01:59:22.399Z,74.72
2019-03-20T02:01:50.792Z,74.81
2019-03-20T02:04:19.200Z,74.65
2019-03-20T02:06:47.592Z,74.32
2019-03-20T02:09:35.124Z,74.84
2019-03-20T02:12:03.519Z,74.56
2019-03-20T02:14:31.920Z,74.89
2019-03-20T02:17:00.311Z,74.56
2019-03-20T02:19:47.832Z,74.36
2019-03-20T02:22:35.466Z,74.89
2019-03-20T02:25:43.783Z,74.47
2019-03-20T02:28:12.184Z,74.28
2019-03-20T02:30:40.588Z,74.19
2019-03-20T02:33:28.224Z,74.57
2019-03-20T02:35:56.617Z,74.64
2019-03-20T02:38:44.268Z,74.80
2019-03-20T02:41:12.660Z,74.65
2019-03-20T02:44:00.308Z,74.89
2019-03-20T02:49:16.145Z,74.74
2019-03-20T02:52:04.351Z,74.77
2019-03-20T02:54:34.026Z,74.71
2019-03-20T02:57:21.536Z,75.27
2019-03-20T02:59:49.944Z,75.72
2019-03-20T03:02:37.458Z,76.59
2019-03-20T03:05:45.791Z,76.99
2019-03-20T03:08:14.189Z,77.43
2019-03-20T03:11:01.713Z,77.79
2019-03-20T03:13:30.118Z,78.25
2019-03-20T03:15:58.517Z,78.19
2019-03-20T03:18:26.918Z,78.79
2019-03-20T03:23:29.707Z,79.58
2019-03-20T03:28:32.060Z,80.24
2019-03-20T03:31:19.584Z,79.89
2019-03-20T03:34:07.093Z,79.61
2019-03-20T03:36:54.617Z,79.64
2019-03-20T03:39:42.261Z,79.43
2019-03-20T03:42:10.661Z,79.28
2019-03-20T03:44:39.090Z,78.83
2019-03-20T03:49:54.907Z,77.99
2019-03-20T03:55:50.654Z,77.28
2019-03-20T03:58:38.166Z,77.32
2019-03-20T04:01:25.817Z,77.26
2019-03-20T04:04:13.327Z,77.10
2019-03-20T04:09:16.404Z,76.75
2019-03-20T04:11:44.805Z,76.74
2019-03-20T04:14:13.197Z,76.99
2019-03-20T04:16:41.609Z,76.83
2019-03-20T04:19:29.243Z,76.85
2019-03-20T04:21:57.963Z,77.33
2019-03-20T04:24:45.714Z,77.44
2019-03-20T04:27:14.121Z,77.44
2019-03-20T04:30:01.767Z,76.96
2019-03-20T04:32:30.171Z,76.77
2019-03-20T04:34:58.573Z,77.05
2019-03-20T04:37:26.975Z,76.97
2019-03-20T04:39:55.365Z,76.46
2019-03-20T04:42:23.772Z,76.44
2019-03-20T04:44:52.154Z,76.04
2019-03-20T04:47:20.571Z,75.77
2019-03-20T04:50:08.238Z,75.53
2019-03-20T04:52:36.639Z,75.39
2019-03-20T04:55:44.951Z,75.07
2019-03-20T04:58:13.347Z,74.76
2019-03-20T05:01:01.007Z,74.79
2019-03-20T05:03:29.403Z,74.80
2019-03-20T05:06:17.051Z,74.72
2019-03-20T05:08:45.453Z,74.45
2019-03-20T05:11:13.860Z,74.14
2019-03-20T05:19:04.373Z,73.87
2019-03-20T05:21:51.892Z,73.77
2019-03-20T05:24:20.292Z,73.76
2019-03-20T05:26:48.730Z,73.85
2019-03-20T05:29:17.151Z,73.94
2019-03-20T05:31:45.579Z,73.98
2019-03-20T05:37:20.553Z,74.25
2019-03-20T05:39:48.984Z,75.03
2019-03-20T05:42:36.642Z,75.64
2019-03-20T05:45:45.000Z,75.57
2019-03-20T05:48:32.672Z,75.35
2019-03-20T05:51:01.123Z,75.42
2019-03-20T05:53:29.539Z,75.32
2019-03-20T05:55:57.978Z,75.23
2019-03-20T05:58:45.657Z,75.18
2019-03-20T06:01:14.100Z,76.17
2019-03-20T06:04:01.858Z,75.40
2019-03-20T06:06:49.564Z,72.33
2019-03-20T06:09:37.236Z,69.50
2019-03-20T06:12:05.678Z,65.47
2019-03-20T06:14:53.324Z,62.38
2019-03-20T06:17:41.092Z,59.51
2019-03-20T06:20:49.409Z,57.71
2019-03-20T06:23:17.821Z,54.98
2019-03-20T06:26:05.542Z,50.47
2019-03-20T06:28:33.982Z,49.45
2019-03-20T06:31:21.683Z,47.23
2019-03-20T06:34:09.354Z,45.18
2019-03-20T06:36:57.025Z,43.62
2019-03-20T06:42:32.121Z,39.71
2019-03-20T06:45:00.529Z,38.37
2019-03-20T06:47:48.199Z,37.42
2019-03-20T06:50:56.508Z,35.87
2019-03-20T06:53:44.159Z,35.55
2019-03-20T06:56:24.349Z,35.59
2019-03-20T06:59:32.671Z,35.23
2019-03-20T07:02:40.995Z,33.62
2019-03-20T07:05:49.301Z,33.59
2019-03-20T07:08:57.623Z,35.00
2019-03-20T07:11:24.875Z,37.03
2019-03-20T07:14:12.532Z,38.45
2019-03-20T07:16:40.934Z,38.49
2019-03-20T07:19:28.468Z,39.42
2019-03-20T07:22:16.186Z,40.50
2019-03-20T07:24:44.590Z,43.23
2019-03-20T07:27:32.251Z,43.82
2019-03-20T07:32:48.112Z,39.10
2019-03-20T07:35:35.761Z,37.07
2019-03-20T07:38:23.427Z,34.61
2019-03-20T07:40:51.835Z,32.43
2019-03-20T07:46:34.722Z,30.71
2019-03-20T07:54:11.518Z,28.16
2019-03-20T07:56:39.926Z,28.67
2019-03-20T07:59:08.336Z,29.65
2019-03-20T08:01:36.746Z,30.86
2019-03-20T08:04:45.070Z,32.28
2019-03-20T08:10:00.925Z,32.83
2019-03-20T08:18:17.245Z,32.92
2019-03-20T08:21:04.889Z,33.04
2019-03-20T08:23:33.317Z,32.39
2019-03-20T08:26:20.837Z,31.49
2019-03-20T08:28:49.254Z,32.27
2019-03-20T08:31:37.006Z,34.28
2019-03-20T08:34:24.533Z,33.37
2019-03-20T08:37:12.193Z,33.18
2019-03-20T08:39:40.606Z,34.45
2019-03-20T08:42:09.009Z,34.19
2019-03-20T08:44:56.670Z,33.64
2019-03-20T08:47:44.188Z,32.00
2019-03-20T08:50:31.956Z,33.66
2019-03-20T08:55:34.734Z,36.21
2019-03-20T08:58:03.155Z,38.23
2019-03-20T09:03:39.632Z,38.38
2019-03-20T09:06:27.154Z,40.30
2019-03-20T09:08:55.572Z,40.03
2019-03-20T09:11:43.091Z,39.54
2019-03-20T09:14:11.504Z,39.79
2019-03-20T09:16:39.938Z,40.48
2019-03-20T09:19:08.327Z,41.13
2019-03-20T09:21:55.972Z,41.74
2019-03-20T09:24:43.726Z,42.12
2019-03-20T09:27:12.129Z,45.09
2019-03-20T09:29:41.278Z,45.44
2019-03-20T09:32:29.916Z,46.96
2019-03-20T09:35:17.596Z,49.38
2019-03-20T09:38:05.240Z,51.39
2019-03-20T09:40:52.989Z,52.49
2019-03-20T09:43:21.406Z,53.63
2019-03-20T09:45:49.811Z,54.01
2019-03-20T09:48:37.566Z,54.72
2019-03-20T09:51:06.213Z,55.45
2019-03-20T09:53:34.624Z,54.50
2019-03-20T09:56:22.274Z,54.88
2019-03-20T09:58:50.689Z,55.02
2019-03-20T10:04:06.552Z,56.13
2019-03-20T10:06:54.202Z,57.25
2019-03-20T10:09:22.619Z,56.79
2019-03-20T10:12:10.264Z,57.38
2019-03-20T10:14:57.924Z,59.52
2019-03-20T10:17:26.335Z,59.62
2019-03-20T10:19:54.748Z,58.89
2019-03-20T10:22:23.155Z,58.30
2019-03-20T10:25:10.813Z,59.18
2019-03-20T10:27:39.217Z,59.32
2019-03-20T10:30:47.549Z,59.76
2019-03-20T10:33:35.061Z,58.45
2019-03-20T10:36:03.472Z,58.44
2019-03-20T10:38:51.092Z,57.90
2019-03-20T10:41:19.489Z,57.77
2019-03-20T10:44:07.147Z,57.70
2019-03-20T10:49:23.010Z,58.59
2019-03-20T10:52:10.532Z,59.25
2019-03-20T10:57:13.404Z,59.26
2019-03-20T10:59:41.825Z,59.55
2019-03-20T11:02:10.226Z,59.55
2019-03-20T11:04:57.886Z,59.43
2019-03-20T11:07:45.407Z,59.07
2019-03-20T11:10:53.727Z,58.58
2019-03-20T11:13:22.134Z,59.20
2019-03-20T11:16:09.807Z,59.43
2019-03-20T11:18:38.220Z,59.33
2019-03-20T11:24:00.313Z,59.59
2019-03-20T11:26:28.748Z,59.76
2019-03-20T11:28:57.179Z,60.03
2019-03-20T11:31:44.894Z,59.60
2019-03-20T11:34:13.317Z,59.36
2019-03-20T11:39:15.748Z,59.43
2019-03-20T11:41:44.206Z,59.74
2019-03-20T11:47:19.445Z,59.06
2019-03-20T11:50:07.137Z,59.29
2019-03-20T11:52:35.603Z,59.01
2019-03-20T11:55:23.568Z,59.58
2019-03-20T11:57:51.989Z,59.89
2019-03-20T12:01:00.308Z,60.91
2019-03-20T12:03:28.743Z,60.58
2019-03-20T12:05:57.187Z,60.07
2019-03-20T12:08:25.592Z,60.43
2019-03-20T12:14:08.379Z,61.07
2019-03-20T12:16:36.851Z,62.19
2019-03-20T12:21:52.745Z,62.92
2019-03-20T12:24:21.208Z,63.29
2019-03-20T12:26:49.654Z,63.72
2019-03-20T12:29:37.331Z,65.17
2019-03-20T12:32:05.862Z,65.60
2019-03-20T12:34:34.290Z,65.92
2019-03-20T12:37:02.732Z,65.86
2019-03-20T12:39:31.166Z,65.43
2019-03-20T12:44:33.841Z,65.75
2019-03-20T12:47:21.536Z,64.58
2019-03-20T12:49:50.007Z,64.40
2019-03-20T12:52:37.782Z,64.16
2019-03-20T12:55:46.139Z,64.41
2019-03-20T12:58:14.559Z,64.81
2019-03-20T13:01:02.289Z,66.85
2019-03-20T13:06:18.432Z,68.49
2019-03-20T13:08:46.872Z,68.98
2019-03-20T13:11:34.424Z,70.22
2019-03-20T13:14:02.871Z,71.89
2019-03-20T13:16:50.583Z,71.85
2019-03-20T13:19:19.005Z,72.40
2019-03-20T13:22:06.595Z,73.17
2019-03-20T13:24:35.047Z,74.98
2019-03-20T13:30:20.307Z,79.85
2019-03-20T13:32:47.539Z,80.43
2019-03-20T13:38:03.432Z,81.83
2019-03-20T13:40:31.881Z,83.04
2019-03-20T13:43:00.644Z,82.57
2019-03-20T13:46:08.979Z,83.23
2019-03-20T13:48:37.415Z,84.49
2019-03-20T13:51:05.861Z,83.91
2019-03-20T13:53:34.314Z,84.17
2019-03-20T13:56:21.860Z,83.79
2019-03-20T13:58:52.262Z,83.22
2019-03-20T14:01:20.487Z,83.88
2019-03-20T14:03:48.934Z,83.64
2019-03-20T14:06:36.450Z,84.20
2019-03-20T14:09:44.818Z,84.28
2019-03-20T14:12:33.518Z,83.28
2019-03-20T14:15:02.657Z,83.13
2019-03-20T14:20:44.642Z,83.55
2019-03-20T14:23:13.076Z,83.07
2019-03-20T14:26:00.974Z,83.28
2019-03-20T14:28:29.432Z,83.38
2019-03-20T14:30:57.931Z,83.61
2019-03-20T14:33:26.394Z,83.63
2019-03-20T14:36:14.033Z,83.16
2019-03-20T14:38:42.554Z,81.98
2019-03-20T14:41:30.251Z,80.95
2019-03-20T14:43:58.701Z,79.42
2019-03-20T14:46:27.139Z,79.77
2019-03-20T14:48:55.562Z,79.99
2019-03-20T14:51:23.994Z,80.21
2019-03-20T14:53:52.428Z,79.82
2019-03-20T14:56:20.846Z,79.55
2019-03-20T14:58:49.306Z,79.93
2019-03-20T15:01:44.524Z,78.80
2019-03-20T15:04:12.957Z,79.20
2019-03-20T15:07:00.605Z,79.86
2019-03-20T15:09:29.051Z,79.43
2019-03-20T15:11:57.470Z,77.78
2019-03-20T15:14:45.065Z,77.80
2019-03-20T15:17:13.514Z,77.37
2019-03-20T15:24:50.590Z,77.13
2019-03-20T15:27:19.036Z,76.65
2019-03-20T15:30:26.079Z,76.67
2019-03-20T15:32:54.517Z,76.55
2019-03-20T15:38:15.720Z,77.21
2019-03-20T15:40:44.446Z,76.75
2019-03-20T15:43:12.852Z,77.18
2019-03-20T15:45:41.298Z,77.23
2019-03-20T15:50:57.277Z,77.20
2019-03-20T15:53:25.776Z,76.97
2019-03-20T15:55:54.212Z,76.73
2019-03-20T15:58:22.629Z,76.86
2019-03-20T16:01:10.187Z,76.31
2019-03-20T16:04:18.546Z,76.48
2019-03-20T16:07:06.238Z,76.19
2019-03-20T16:09:34.718Z,75.99
2019-03-20T16:12:03.134Z,75.47
2019-03-20T16:14:31.570Z,75.08
2019-03-20T16:16:59.982Z,75.66
2019-03-20T16:19:28.417Z,75.49
2019-03-20T16:21:56.830Z,75.71
2019-03-20T16:24:25.300Z,75.24
2019-03-20T16:27:13.098Z,75.73
2019-03-20T16:30:00.669Z,75.48
2019-03-20T16:32:29.124Z,76.22
2019-03-20T16:34:57.598Z,76.50
2019-03-20T16:37:25.998Z,76.55
2019-03-20T16:39:54.415Z,76.43
2019-03-20T16:42:22.818Z,76.41
2019-03-20T16:44:51.233Z,76.03
2019-03-20T16:47:19.707Z,76.08
2019-03-20T16:49:48.129Z,75.99
2019-03-20T16:52:16.539Z,76.10
2019-03-20T16:54:44.955Z,76.18
2019-03-20T16:57:13.442Z,75.55
2019-03-20T16:59:41.853Z,75.49
2019-03-20T17:02:10.258Z,75.59
2019-03-20T17:04:38.676Z,75.04
2019-03-20T17:07:07.077Z,74.97
2019-03-20T17:09:35.491Z,75.55
2019-03-20T17:12:04.064Z,75.33
2019-03-20T17:14:32.478Z,75.65
2019-03-20T17:17:00.880Z,76.35
2019-03-20T17:19:29.283Z,75.61
2019-03-20T17:21:57.695Z,75.50
2019-03-20T17:24:26.102Z,75.31
2019-03-20T17:26:54.514Z,75.21
2019-03-20T17:29:22.917Z,74.94
2019-03-20T17:31:51.329Z,75.29
2019-03-20T17:34:19.728Z,75.15
2019-03-20T17:36:48.160Z,75.18
2019-03-20T17:39:16.606Z,74.90
2019-03-20T17:41:45.018Z,74.95
2019-03-20T17:44:13.422Z,75.41
2019-03-20T17:46:41.836Z,74.71
2019-03-20T17:49:10.237Z,74.74
2019-03-20T17:51:38.653Z,73.94
2019-03-20T17:54:07.058Z,73.86
2019-03-20T17:56:35.471Z,73.67
2019-03-20T17:59:03.882Z,73.51
2019-03-20T18:01:32.294Z,75.00
2019-03-20T18:04:00.703Z,74.59
2019-03-20T18:06:29.194Z,75.67
2019-03-20T18:08:57.599Z,75.52
2019-03-20T18:11:26.054Z,75.92
2019-03-20T18:13:54.460Z,75.82
2019-03-20T18:16:22.877Z,75.85
2019-03-20T18:18:51.377Z,74.89
2019-03-20T18:21:19.792Z,74.99
2019-03-20T18:23:48.240Z,74.33
2019-03-20T18:26:16.655Z,74.11
2019-03-20T18:28:45.097Z,73.93
2019-03-20T18:31:13.528Z,74.19
2019-03-20T18:33:41.934Z,73.63
2019-03-20T18:36:10.346Z,72.94
2019-03-20T18:38:38.819Z,72.93
2019-03-20T18:41:07.237Z,72.80
2019-03-20T18:43:35.637Z,73.22
2019-03-20T18:46:04.122Z,72.99
2019-03-20T18:48:32.532Z,72.95
2019-03-20T18:51:00.947Z,72.84
2019-03-20T18:53:29.356Z,73.27
2019-03-20T18:55:57.769Z,73.22
2019-03-20T18:58:26.178Z,74.15
2019-03-20T19:00:54.607Z,74.07
2019-03-20T19:03:38.076Z,73.70
2019-03-20T19:06:14.466Z,73.58
2019-03-20T19:08:43.023Z,74.49
2019-03-20T19:11:11.444Z,74.77
2019-03-20T19:13:39.842Z,74.35
2019-03-20T19:16:08.294Z,73.79
2019-03-20T19:18:36.657Z,73.57
2019-03-20T19:21:05.066Z,73.64
2019-03-20T19:23:33.468Z,73.57
2019-03-20T19:26:01.943Z,73.99
2019-03-20T19:28:30.457Z,73.76
2019-03-20T19:30:58.866Z,74.58
2019-03-20T19:33:27.286Z,74.92
2019-03-20T19:35:55.691Z,76.03
2019-03-20T19:38:34.269Z,76.18
2019-03-20T19:40:54.253Z,75.92
2019-03-20T19:43:22.997Z,77.20
2019-03-20T19:45:51.450Z,77.64
2019-03-20T19:48:19.865Z,77.75
2019-03-20T19:50:48.271Z,77.36
2019-03-20T19:53:16.681Z,77.42
2019-03-20T19:55:45.090Z,77.65
2019-03-20T19:58:13.508Z,77.91
2019-03-20T20:00:41.913Z,78.51
2019-03-20T20:03:10.325Z,78.43
2019-03-20T20:05:38.740Z,78.32
2019-03-20T20:08:07.153Z,78.48
2019-03-20T20:10:35.553Z,78.84
2019-03-20T20:13:04.035Z,78.87
2019-03-20T20:15:38.561Z,78.75
2019-03-20T20:18:06.974Z,79.06
2019-03-20T20:20:37.021Z,79.11
2019-03-20T20:23:05.500Z,79.44
2019-03-20T20:25:33.904Z,79.59
2019-03-20T20:28:02.318Z,80.00
2019-03-20T20:30:30.789Z,79.56
2019-03-20T20:32:59.208Z,79.16
2019-03-20T20:35:27.618Z,79.04
2019-03-20T20:37:56.020Z,79.49
2019-03-20T20:40:29.315Z,78.97
2019-03-20T20:42:57.799Z,79.62
2019-03-20T20:45:26.213Z,79.12
2019-03-20T20:47:54.668Z,78.26
2019-03-20T20:50:23.144Z,77.94
2019-03-20T20:52:51.558Z,79.44
2019-03-20T20:55:21.971Z,79.99
2019-03-20T20:57:50.448Z,80.33
2019-03-20T21:00:23.820Z,79.67
2019-03-20T21:02:52.376Z,80.98
2019-03-20T21:05:20.845Z,80.53
2019-03-20T21:07:49.277Z,80.55
2019-03-20T21:10:18.706Z,80.00
2019-03-20T21:12:56.454Z,81.05
2019-03-20T21:15:34.634Z,81.18
2019-03-20T21:18:15.188Z,82.72
2019-03-20T21:20:44.133Z,82.25
2019-03-20T21:23:38.539Z,82.68
2019-03-20T21:26:12.281Z,82.68
2019-03-20T21:29:05.709Z,82.56
2019-03-20T21:31:37.258Z,82.80
2019-03-20T21:34:32.728Z,82.24
2019-03-20T21:37:23.781Z,82.34
2019-03-20T21:39:52.264Z,82.69
2019-03-20T21:42:32.726Z,82.52
2019-03-20T21:45:09.719Z,82.25
2019-03-20T21:47:37.679Z,82.56
2019-03-20T21:50:21.190Z,82.65
2019-03-20T21:52:49.605Z,83.33
2019-03-20T21:55:24.106Z,83.36
2019-03-20T21:57:55.678Z,84.41
2019-03-20T22:01:00.310Z,83.88
2019-03-20T22:03:28.786Z,84.03
2019-03-20T22:06:06.273Z,83.28
2019-03-20T22:08:34.695Z,83.11
2019-03-20T22:11:25.846Z,83.43
2019-03-20T22:13:57.418Z,82.43
2019-03-20T22:16:28.875Z,81.42
2019-03-20T22:19:16.894Z,81.02
2019-03-20T22:22:20.087Z,81.36
2019-03-20T22:25:00.327Z,80.45
2019-03-20T22:27:40.897Z,80.01
2019-03-20T22:30:09.691Z,79.92
2019-03-20T22:32:57.024Z,80.08
2019-03-20T22:36:05.397Z,80.57
2019-03-20T22:39:13.718Z,80.31
2019-03-20T22:42:22.108Z,80.88
2019-03-20T22:45:29.147Z,81.78
2019-03-20T22:48:36.178Z,81.86
2019-03-20T22:51:43.179Z,81.45
2019-03-20T22:54:50.186Z,82.06
2019-03-20T22:57:57.192Z,80.95
2019-03-20T23:01:05.513Z,81.19
2019-03-20T23:04:13.830Z,81.34
2019-03-20T23:07:01.373Z,81.59
2019-03-20T23:12:44.032Z,81.00
2019-03-20T23:15:52.351Z,80.38
2019-03-20T23:18:20.784Z,80.10
2019-03-20T23:20:49.204Z,79.18
2019-03-20T23:23:17.622Z,78.90
2019-03-20T23:26:05.190Z,78.53
2019-03-20T23:28:33.588Z,78.50
2019-03-20T23:31:02.001Z,78.37
2019-03-20T23:33:49.671Z,78.19
2019-03-20T23:36:37.206Z,78.11
2019-03-20T23:39:45.526Z,78.73
2019-03-20T23:42:13.933Z,78.62
2019-03-20T23:44:42.375Z,78.18
2019-03-20T23:47:10.781Z,78.38
2019-03-20T23:49:39.198Z,79.19
2019-03-20T23:52:07.621Z,79.53
2019-03-20T23:55:15.966Z,79.39
2019-03-20T23:57:44.374Z,80.24
